DW9420 New Gretna NJ US current weather conditions

sailwx.info

Wind from 158 at 1 knots gusting 6

Air temperature 26.7° C
Dewpoint 24.1° C

Last reported at 2020-Aug-11 23:55 UTC.
Time now 2020-Aug-12 00:57 UTC

Location: N 39°35' W 074°28'.
View on Google Maps.

See reports from other nearby stations

  
Tides and Currents Weather Stations Pressure Air Temp Water Temp Dewpoint Dewpoint Depression Visibility Wind Speed Wind Dir Waves Ship Positions
date/time (UTC)wind fromknots sea level pressurealtimeterstation pressurevisibilityair tempwater tempwave heightnotes
2020-Aug-11 23:55 158 1 gusting 6 26.7
2020-Aug-11 23:45 141 1 gusting 5 27.2
2020-Aug-11 23:30 123 1 gusting 5 27.2
2020-Aug-11 23:25 101 2 gusting 6 27.8
2020-Aug-11 23:15 121 2 gusting 6 27.8
2020-Aug-11 23:05 127 1 gusting 5 27.8
2020-Aug-11 23:00 094 2 gusting 5 28.3
2020-Aug-11 22:50 117 2 gusting 7 28.3
2020-Aug-11 22:45 149 1 gusting 4 28.3
2020-Aug-11 22:35 126 2 gusting 6 28.9
2020-Aug-11 22:15 110 2 gusting 5 29.4
2020-Aug-11 22:10 134 2 gusting 6 29.4
2020-Aug-11 22:05 338 1 gusting 6 29.4
2020-Aug-11 22:00 141 1 gusting 5 29.4
2020-Aug-11 21:55 132 2 gusting 6 29.4
2020-Aug-11 21:50 109 2 gusting 6 29.4
2020-Aug-11 21:40 137 2 gusting 8 30.0
2020-Aug-11 21:30 146 1 gusting 4 30.6
2020-Aug-11 21:25 128 2 gusting 5 30.6
2020-Aug-11 21:20 126 2 gusting 7 30.6
2020-Aug-11 21:15 158 4 gusting 10 30.6
2020-Aug-11 21:10 135 5 gusting 10 30.6
2020-Aug-11 21:00 110 4 gusting 6 31.1
2020-Aug-11 20:55 120 4 gusting 7 31.1
2020-Aug-11 20:50 114 2 gusting 7 31.7
2020-Aug-11 20:45 127 2 gusting 7 31.7
2020-Aug-11 20:35 119 2 gusting 6 31.7
2020-Aug-11 20:25 140 4 gusting 6 31.1
2020-Aug-11 20:15 161 2 gusting 6 32.2
2020-Aug-11 20:10 274 2 gusting 7 31.7
2020-Aug-11 20:00 111 4 gusting 6 31.7
2020-Aug-11 19:55 108 3 gusting 6 31.7
2020-Aug-11 19:50 179 4 gusting 6 31.7
2020-Aug-11 19:45 173 4 gusting 11 31.7
2020-Aug-11 19:40 121 5 gusting 11 31.7
2020-Aug-11 19:25 128 2 gusting 4 31.1
2020-Aug-11 19:10 140 4 gusting 5 32.8
2020-Aug-11 19:05 195 2 gusting 5 32.8
2020-Aug-11 18:40 160 4 gusting 7 32.8
2020-Aug-11 18:30 139 3 gusting 7 32.8
2020-Aug-11 18:25 162 4 gusting 6 33.3
2020-Aug-11 18:20 133 4 gusting 8 33.3
2020-Aug-11 18:05 184 1 gusting 4 33.3
2020-Aug-11 18:00 138 3 gusting 6 32.8
2020-Aug-11 17:45 107 4 gusting 7 33.3
2020-Aug-11 17:35 148 4 gusting 6 33.9
2020-Aug-11 17:30 138 4 gusting 7 33.9
2020-Aug-11 17:25 145 2 gusting 7 33.9
2020-Aug-11 17:15 178 4 gusting 7 33.3
2020-Aug-11 17:05 126 4 gusting 7 33.9
2020-Aug-11 16:45 309 1 gusting 6 34.4
2020-Aug-11 16:35 127 3 gusting 7 35.0
2020-Aug-11 16:25 127 2 gusting 6 33.3
2020-Aug-11 16:15 154 2 gusting 5 32.2
2020-Aug-11 16:05 112 0 gusting 1 32.2
2020-Aug-11 15:50 092 1 gusting 4 33.9
2020-Aug-11 15:45 088 1 gusting 4 33.9
2020-Aug-11 15:35 251 1 gusting 4 32.8
2020-Aug-11 15:15 271 1 gusting 5 33.3
2020-Aug-11 15:05 311 1 gusting 2 33.3
2020-Aug-11 14:55 281 0 gusting 2 32.8
2020-Aug-11 14:50 055 1 gusting 4 32.2
2020-Aug-11 14:40 151 0 gusting 2 31.7
2020-Aug-11 14:15 068 1 gusting 1 30.0
2020-Aug-11 14:05 164 29.4
2020-Aug-11 13:55 158 0 gusting 1 28.9
2020-Aug-11 13:45 157 1 gusting 5 27.2
2020-Aug-11 13:30 167 1 gusting 4 27.2
2020-Aug-11 13:25 157 2 gusting 4 27.2
2020-Aug-11 13:15 112 1 gusting 2 27.2
2020-Aug-11 12:55 287 0 gusting 2 26.7
2020-Aug-11 12:50 112 1 gusting 2 26.7
2020-Aug-11 12:45 143 0 gusting 4 26.7
2020-Aug-11 12:00 112 0 gusting 1 26.1
2020-Aug-11 11:55 112 25.6
2020-Aug-11 11:50 112 25.6
2020-Aug-11 11:35 202 25.6
2020-Aug-11 11:25 202 25.6
2020-Aug-11 11:15 202 25.0
2020-Aug-11 11:10 202 25.0
2020-Aug-11 11:00 202 25.0
2020-Aug-11 10:35 202 24.4
2020-Aug-11 10:25 192 24.4
2020-Aug-11 10:20 180 24.4
2020-Aug-11 10:15 165 1 gusting 2 24.4
2020-Aug-11 10:10 158 0 gusting 1 24.4
2020-Aug-11 10:05 186 1 gusting 2 24.4
2020-Aug-11 09:45 112 0 gusting 2 23.9
2020-Aug-11 09:40 158 0 gusting 1 23.9
2020-Aug-11 09:30 158 0 gusting 1 23.9
2020-Aug-11 09:25 158 23.9
2020-Aug-11 09:20 158 23.3
2020-Aug-11 09:05 158 23.3
2020-Aug-11 08:45 158 0 gusting 1 23.3
2020-Aug-11 08:30 135 23.3
2020-Aug-11 08:25 135 22.8
2020-Aug-11 08:20 135 23.3
2020-Aug-11 08:15 135 23.3
2020-Aug-11 08:05 135 23.3
2020-Aug-11 08:00 135 23.3
2020-Aug-11 07:55 135 23.3
2020-Aug-11 07:45 135 23.3
2020-Aug-11 07:35 135 23.3
2020-Aug-11 07:25 135 23.3
2020-Aug-11 07:20 135 23.3
2020-Aug-11 07:15 135 23.3
2020-Aug-11 07:10 135 23.3
2020-Aug-11 07:05 135 23.3
2020-Aug-11 06:55 135 23.3
2020-Aug-11 06:45 135 23.3
2020-Aug-11 06:20 135 23.3
2020-Aug-11 06:15 135 23.3
2020-Aug-11 06:00 158 23.3
2020-Aug-11 05:55 158 23.3
2020-Aug-11 05:45 158 23.3
2020-Aug-11 05:30 158 23.3
2020-Aug-11 05:25 158 23.3
2020-Aug-11 05:20 158 23.3
2020-Aug-11 05:15 158 23.3
2020-Aug-11 05:10 158 23.3
2020-Aug-11 05:05 158 23.3
2020-Aug-11 04:55 158 23.3
2020-Aug-11 04:50 158 23.3
2020-Aug-11 04:45 158 23.3
2020-Aug-11 04:35 158 23.3
2020-Aug-11 04:30 158 23.3
2020-Aug-11 04:25 158 23.3
2020-Aug-11 04:15 158 23.3
2020-Aug-11 04:05 158 23.3
2020-Aug-11 04:00 158 23.3
2020-Aug-11 03:55 158 23.3
2020-Aug-11 03:50 158 23.3
2020-Aug-11 03:45 158 23.3
2020-Aug-11 03:40 158 23.3
2020-Aug-11 03:30 158 23.3
2020-Aug-11 03:15 158 23.9
2020-Aug-11 03:10 158 23.9
2020-Aug-11 03:05 158 23.9
2020-Aug-11 02:55 158 23.9
2020-Aug-11 02:40 158 23.9
2020-Aug-11 02:30 135 0 gusting 1 24.4
2020-Aug-11 02:25 202 23.9
2020-Aug-11 02:15 202 24.4
2020-Aug-11 02:10 158 24.4
2020-Aug-11 02:05 158 0 gusting 4 24.4
2020-Aug-11 02:00 158 0 gusting 1 24.4
2020-Aug-11 01:55 158 24.4
2020-Aug-11 01:45 158 24.4
2020-Aug-11 01:40 158 24.4
2020-Aug-11 01:35 158 0 gusting 1 24.4
2020-Aug-11 01:20 158 25.0
2020-Aug-11 01:10 160 0 gusting 2 25.0
2020-Aug-11 01:05 202 25.0
2020-Aug-11 00:55 202 25.0
2020-Aug-11 00:50 179 0 gusting 1 25.6
2020-Aug-11 00:45 158 25.6
2020-Aug-11 00:30 112 26.1
2020-Aug-11 00:25 112 1 gusting 1 26.1
2020-Aug-11 00:15 158 0 gusting 2 26.7
2020-Aug-11 00:10 158 0 gusting 1 26.7
2020-Aug-11 00:05 158 1 gusting 2 26.7
2020-Aug-10 23:55 158 27.2
2020-Aug-10 23:40 144 0 gusting 4 27.8
2020-Aug-10 23:35 151 2 gusting 4 27.8
2020-Aug-10 23:20 344 0 gusting 2 28.3
2020-Aug-10 23:15 128 1 gusting 2 28.3
2020-Aug-10 23:10 158 1 gusting 2 28.3
2020-Aug-10 23:05 175 1 gusting 4 28.3
2020-Aug-10 23:00 153 0 gusting 5 28.3
2020-Aug-10 22:55 093 1 gusting 5 28.9
2020-Aug-10 22:40 085 1 gusting 2 28.9
2020-Aug-10 22:20 069 2 gusting 6 29.4
2020-Aug-10 22:15 121 2 gusting 6 29.4
2020-Aug-10 22:10 126 4 gusting 6 29.4
2020-Aug-10 22:05 160 4 gusting 7 30.0
2020-Aug-10 21:55 107 2 gusting 5 30.6
2020-Aug-10 21:45 164 2 gusting 6 30.6
2020-Aug-10 21:40 149 2 gusting 6 30.6
2020-Aug-10 21:35 183 1 gusting 5 31.1
2020-Aug-10 21:30 135 2 gusting 8 31.1
2020-Aug-10 21:25 137 2 gusting 8 31.1
2020-Aug-10 21:10 149 2 gusting 6 31.7
2020-Aug-10 20:55 340 1 gusting 4 32.8
2020-Aug-10 20:50 190 1 gusting 5 32.8
2020-Aug-10 20:35 144 2 gusting 7 32.8
2020-Aug-10 20:30 128 4 gusting 7 32.8
2020-Aug-10 20:25 127 1 gusting 8 32.8
2020-Aug-10 20:20 138 4 gusting 8 32.8
2020-Aug-10 20:05 165 3 gusting 8 32.8
2020-Aug-10 20:00 156 3 gusting 8 32.8
2020-Aug-10 19:50 129 3 gusting 5 32.8
2020-Aug-10 19:40 129 5 gusting 10 32.8
2020-Aug-10 19:30 096 2 gusting 7 33.3
2020-Aug-10 19:05 137 2 gusting 5 33.9
2020-Aug-10 18:55 158 2 gusting 7 33.9
2020-Aug-10 18:50 150 4 gusting 7 33.9
2020-Aug-10 18:45 127 2 gusting 6 33.9
2020-Aug-10 18:35 132 3 gusting 7 32.8
2020-Aug-10 18:30 177 4 gusting 7 32.8
2020-Aug-10 18:25 148 4 gusting 7 33.3
2020-Aug-10 18:15 146 4 gusting 6 34.4
2020-Aug-10 18:10 151 2 gusting 13 34.4
2020-Aug-10 18:00 158 4 gusting 5 35.6
2020-Aug-10 17:55 149 3 gusting 5 35.6
2020-Aug-10 17:45 189 1 gusting 5 35.6
2020-Aug-10 17:25 292 1 gusting 4 36.7
2020-Aug-10 17:20 304 1 gusting 4 37.8
2020-Aug-10 17:05 257 1 gusting 4 37.8
2020-Aug-10 17:00 307 1 gusting 4 38.3
2020-Aug-10 16:55 275 1 gusting 2 38.3
2020-Aug-10 16:50 270 0 gusting 2 38.9
2020-Aug-10 16:45 234 1 gusting 4 38.3
2020-Aug-10 16:40 255 1 gusting 2 38.3
2020-Aug-10 16:35 232 1 gusting 6 37.8
2020-Aug-10 16:30 139 3 gusting 6 37.2
2020-Aug-10 16:25 158 0 gusting 4 37.8
2020-Aug-10 16:20 177 1 gusting 4 38.3
2020-Aug-10 16:15 289 1 gusting 2 38.3
2020-Aug-10 16:10 303 1 gusting 2 37.8
2020-Aug-10 16:05 251 1 gusting 5 37.2
2020-Aug-10 15:50 292 0 gusting 1 37.2
2020-Aug-10 15:45 292 0 gusting 1 36.7
2020-Aug-10 15:35 278 1 gusting 5 36.7
2020-Aug-10 15:30 282 1 gusting 5 37.2
2020-Aug-10 15:20 282 1 gusting 4 36.7
2020-Aug-10 15:05 206 0 gusting 1 35.6
2020-Aug-10 15:00 277 0 gusting 2 35.6
2020-Aug-10 14:50 292 1 gusting 2 36.1
2020-Aug-10 14:40 295 1 gusting 4 35.0
2020-Aug-10 14:35 292 0 gusting 4 35.0
2020-Aug-10 14:30 292 0 gusting 2 34.4
2020-Aug-10 14:25 204 0 gusting 2 33.9
2020-Aug-10 14:10 247 0 gusting 1 33.9
2020-Aug-10 14:05 196 0 gusting 2 32.8
2020-Aug-10 14:00 280 1 gusting 2 33.3
2020-Aug-10 13:55 305 1 gusting 2 32.8
2020-Aug-10 13:50 296 1 gusting 4 32.2
2020-Aug-10 13:45 284 1 gusting 2 31.7
2020-Aug-10 13:30 292 0 gusting 4 31.1
2020-Aug-10 13:20 281 1 gusting 4 30.0
2020-Aug-10 13:05 268 2 gusting 5 29.4
2020-Aug-10 12:55 293 1 gusting 5 28.3
2020-Aug-10 12:50 275 1 gusting 2 28.3
2020-Aug-10 12:40 271 1 gusting 4 27.8
2020-Aug-10 12:20 283 1 gusting 5 27.2
2020-Aug-10 12:10 287 1 gusting 5 26.7
2020-Aug-10 11:45 248 0 gusting 1 25.6
2020-Aug-10 11:30 248 25.0
2020-Aug-10 11:25 248 24.4
2020-Aug-10 11:10 248 24.4
2020-Aug-10 11:05 248 23.9
2020-Aug-10 10:55 202 23.9
2020-Aug-10 10:50 202 23.9
2020-Aug-10 10:45 022 23.3
2020-Aug-10 10:35 022 23.3
2020-Aug-10 10:30 022 23.3
2020-Aug-10 10:25 022 23.3
2020-Aug-10 10:20 022 23.3
2020-Aug-10 10:10 022 23.3
2020-Aug-10 10:00 022 23.3
2020-Aug-10 09:50 022 23.3
2020-Aug-10 09:35 022 23.3
2020-Aug-10 09:30 022 23.3
2020-Aug-10 09:20 022 23.3
2020-Aug-10 09:10 022 23.3
2020-Aug-10 09:00 022 23.3
2020-Aug-10 08:40 022 23.3
2020-Aug-10 08:35 022 23.3
2020-Aug-10 08:15 022 23.3
2020-Aug-10 08:10 022 23.3
2020-Aug-10 08:05 022 23.3
2020-Aug-10 08:00 022 23.3
2020-Aug-10 07:55 022 23.3
2020-Aug-10 07:20 022 22.8
2020-Aug-10 07:15 022 22.8
2020-Aug-10 07:10 022 22.8
2020-Aug-10 07:05 022 22.8
2020-Aug-10 07:00 022 22.8
2020-Aug-10 06:45 022 22.8
2020-Aug-10 06:40 022 22.8
2020-Aug-10 06:30 022 22.8
2020-Aug-10 06:25 022 22.8
2020-Aug-10 06:15 022 22.8
2020-Aug-10 05:55 022 22.8
2020-Aug-10 05:50 022 22.8
2020-Aug-10 05:45 022 22.8
2020-Aug-10 05:40 022 22.8
2020-Aug-10 05:35 022 22.8
2020-Aug-10 05:20 022 23.3
2020-Aug-10 05:15 022 23.3
2020-Aug-10 05:00 022 23.3
2020-Aug-10 04:55 022 23.3
2020-Aug-10 04:30 068 23.3
2020-Aug-10 04:25 068 23.3
2020-Aug-10 04:15 068 23.3
2020-Aug-10 04:05 068 23.3
2020-Aug-10 03:55 068 23.3
2020-Aug-10 03:45 068 23.9
2020-Aug-10 03:40 068 23.9
2020-Aug-10 03:30 068 23.9
2020-Aug-10 03:25 068 23.9
2020-Aug-10 03:20 068 23.9
2020-Aug-10 03:15 068 23.9
2020-Aug-10 02:55 090 23.9
2020-Aug-10 02:50 090 23.9
2020-Aug-10 02:40 090 23.9
2020-Aug-10 02:30 080 0 gusting 2 23.9
2020-Aug-10 02:25 068 23.9
2020-Aug-10 02:15 068 23.9
2020-Aug-10 02:10 068 0 gusting 1 24.4
2020-Aug-10 01:50 112 24.4
2020-Aug-10 01:45 112 24.4
2020-Aug-10 01:40 112 24.4
2020-Aug-10 01:35 112 0 gusting 1 24.4
2020-Aug-10 01:30 112 0 gusting 2 24.4
2020-Aug-10 01:15 068 0 gusting 2 25.0
2020-Aug-10 01:10 068 0 gusting 2 25.0
2020-Aug-10 01:05 112 0 gusting 0 25.0
2020-Aug-10 01:00 112 25.0
2020-Aug-10 00:55 112 0 gusting 1 25.0
2020-Aug-10 00:25 068 0 gusting 1 25.6
2020-Aug-10 00:15 112 1 gusting 4 25.6
2020-Aug-10 00:10 115 0 gusting 5 25.6
2020-Aug-10 00:05 117 0 gusting 2 26.1
2020-Aug-10 00:00 110 0 gusting 2 26.1